sensor_id;sensor_type;location;lat;lon;timestamp;P1;durP1;ratioP1;P2;durP2;ratioP2
11663;SDS011;72375;59.302;18.204;2023-11-19T00:00:43;1.80;;;1.60;;
11663;SDS011;72375;59.302;18.204;2023-11-19T00:03:28;2.53;;;2.00;;
11663;SDS011;72375;59.302;18.204;2023-11-19T00:06:14;1.50;;;1.40;;
11663;SDS011;72375;59.302;18.204;2023-11-19T00:09:01;2.73;;;1.80;;
11663;SDS011;72375;59.302;18.204;2023-11-19T00:11:48;2.40;;;2.20;;
11663;SDS011;72375;59.302;18.204;2023-11-19T00:14:33;2.43;;;1.73;;
11663;SDS011;72375;59.302;18.204;2023-11-19T00:17:19;2.53;;;1.53;;
11663;SDS011;72375;59.302;18.204;2023-11-19T00:20:05;2.43;;;1.40;;
11663;SDS011;72375;59.302;18.204;2023-11-19T00:22:52;2.80;;;1.97;;
11663;SDS011;72375;59.302;18.204;2023-11-19T00:25:39;2.80;;;1.83;;
11663;SDS011;72375;59.302;18.204;2023-11-19T00:28:24;2.23;;;1.30;;
11663;SDS011;72375;59.302;18.204;2023-11-19T00:31:10;1.70;;;1.50;;
11663;SDS011;72375;59.302;18.204;2023-11-19T00:33:56;1.50;;;1.40;;
11663;SDS011;72375;59.302;18.204;2023-11-19T00:36:42;1.47;;;1.37;;
11663;SDS011;72375;59.302;18.204;2023-11-19T00:39:28;1.93;;;1.53;;
11663;SDS011;72375;59.302;18.204;2023-11-19T00:42:15;1.80;;;1.37;;
11663;SDS011;72375;59.302;18.204;2023-11-19T00:45:01;1.53;;;1.43;;
11663;SDS011;72375;59.302;18.204;2023-11-19T00:47:47;2.30;;;1.90;;
11663;SDS011;72375;59.302;18.204;2023-11-19T00:50:33;3.40;;;1.47;;
11663;SDS011;72375;59.302;18.204;2023-11-19T00:53:18;2.57;;;1.93;;
11663;SDS011;72375;59.302;18.204;2023-11-19T00:56:04;2.00;;;1.57;;
11663;SDS011;72375;59.302;18.204;2023-11-19T00:58:52;1.70;;;1.50;;
11663;SDS011;72375;59.302;18.204;2023-11-19T01:01:37;1.83;;;1.60;;
11663;SDS011;72375;59.302;18.204;2023-11-19T01:04:23;1.53;;;1.43;;
11663;SDS011;72375;59.302;18.204;2023-11-19T01:07:09;1.90;;;1.37;;
11663;SDS011;72375;59.302;18.204;2023-11-19T01:09:56;2.47;;;1.50;;
11663;SDS011;72375;59.302;18.204;2023-11-19T01:12:42;2.43;;;1.80;;
11663;SDS011;72375;59.302;18.204;2023-11-19T01:15:28;1.93;;;1.53;;
11663;SDS011;72375;59.302;18.204;2023-11-19T01:18:14;1.60;;;1.40;;
11663;SDS011;72375;59.302;18.204;2023-11-19T01:21:00;2.03;;;1.70;;
11663;SDS011;72375;59.302;18.204;2023-11-19T01:23:46;1.63;;;1.50;;
11663;SDS011;72375;59.302;18.204;2023-11-19T01:26:31;2.73;;;1.83;;
11663;SDS011;72375;59.302;18.204;2023-11-19T01:29:17;2.83;;;1.73;;
11663;SDS011;72375;59.302;18.204;2023-11-19T01:32:05;2.30;;;1.83;;
11663;SDS011;72375;59.302;18.204;2023-11-19T01:34:51;2.40;;;1.93;;
11663;SDS011;72375;59.302;18.204;2023-11-19T01:37:37;2.83;;;1.57;;
11663;SDS011;72375;59.302;18.204;2023-11-19T01:40:23;1.63;;;1.53;;
11663;SDS011;72375;59.302;18.204;2023-11-19T01:43:08;1.93;;;1.50;;
11663;SDS011;72375;59.302;18.204;2023-11-19T01:45:55;2.00;;;1.80;;
11663;SDS011;72375;59.302;18.204;2023-11-19T01:48:42;4.13;;;1.87;;
11663;SDS011;72375;59.302;18.204;2023-11-19T01:51:30;1.70;;;1.60;;
11663;SDS011;72375;59.302;18.204;2023-11-19T01:54:16;2.23;;;1.63;;
11663;SDS011;72375;59.302;18.204;2023-11-19T01:57:02;2.03;;;1.83;;
11663;SDS011;72375;59.302;18.204;2023-11-19T01:59:48;3.03;;;1.80;;
11663;SDS011;72375;59.302;18.204;2023-11-19T02:02:34;2.03;;;1.57;;
11663;SDS011;72375;59.302;18.204;2023-11-19T02:05:21;3.37;;;1.63;;
11663;SDS011;72375;59.302;18.204;2023-11-19T02:08:07;3.33;;;1.83;;
11663;SDS011;72375;59.302;18.204;2023-11-19T02:10:53;2.27;;;2.03;;
11663;SDS011;72375;59.302;18.204;2023-11-19T02:13:40;2.50;;;1.70;;
11663;SDS011;72375;59.302;18.204;2023-11-19T02:16:27;2.00;;;1.77;;
11663;SDS011;72375;59.302;18.204;2023-11-19T02:19:13;2.17;;;1.80;;
11663;SDS011;72375;59.302;18.204;2023-11-19T02:22:00;2.80;;;1.80;;
11663;SDS011;72375;59.302;18.204;2023-11-19T02:24:46;2.73;;;1.90;;
11663;SDS011;72375;59.302;18.204;2023-11-19T02:27:42;3.00;;;1.87;;
11663;SDS011;72375;59.302;18.204;2023-11-19T02:30:31;2.57;;;1.73;;
11663;SDS011;72375;59.302;18.204;2023-11-19T02:33:17;2.30;;;1.73;;
11663;SDS011;72375;59.302;18.204;2023-11-19T02:36:03;1.70;;;1.60;;
11663;SDS011;72375;59.302;18.204;2023-11-19T02:38:49;2.97;;;2.20;;
11663;SDS011;72375;59.302;18.204;2023-11-19T02:41:35;2.13;;;1.70;;
11663;SDS011;72375;59.302;18.204;2023-11-19T02:44:24;3.07;;;2.00;;
11663;SDS011;72375;59.302;18.204;2023-11-19T02:47:12;3.43;;;1.90;;
11663;SDS011;72375;59.302;18.204;2023-11-19T02:49:57;4.33;;;2.13;;
11663;SDS011;72375;59.302;18.204;2023-11-19T02:52:43;3.67;;;2.20;;
11663;SDS011;72375;59.302;18.204;2023-11-19T02:55:29;4.13;;;2.37;;
11663;SDS011;72375;59.302;18.204;2023-11-19T02:58:20;3.80;;;2.20;;
11663;SDS011;72375;59.302;18.204;2023-11-19T03:01:09;2.27;;;2.03;;
11663;SDS011;72375;59.302;18.204;2023-11-19T03:04:03;2.97;;;2.20;;
11663;SDS011;72375;59.302;18.204;2023-11-19T03:06:49;2.00;;;1.80;;
11663;SDS011;72375;59.302;18.204;2023-11-19T03:09:34;3.23;;;2.20;;
11663;SDS011;72375;59.302;18.204;2023-11-19T03:12:20;2.27;;;1.90;;
11663;SDS011;72375;59.302;18.204;2023-11-19T03:15:06;2.93;;;2.30;;
11663;SDS011;72375;59.302;18.204;2023-11-19T03:17:55;1.83;;;1.70;;
11663;SDS011;72375;59.302;18.204;2023-11-19T03:20:40;2.37;;;1.80;;
11663;SDS011;72375;59.302;18.204;2023-11-19T03:23:25;2.07;;;1.87;;
11663;SDS011;72375;59.302;18.204;2023-11-19T03:26:12;2.53;;;2.10;;
11663;SDS011;72375;59.302;18.204;2023-11-19T03:28:57;2.43;;;2.00;;
11663;SDS011;72375;59.302;18.204;2023-11-19T03:31:43;4.20;;;2.17;;
11663;SDS011;72375;59.302;18.204;2023-11-19T03:34:31;2.60;;;2.33;;
11663;SDS011;72375;59.302;18.204;2023-11-19T03:37:16;4.47;;;2.30;;
11663;SDS011;72375;59.302;18.204;2023-11-19T03:40:03;5.27;;;2.60;;
11663;SDS011;72375;59.302;18.204;2023-11-19T03:42:49;4.97;;;2.70;;
11663;SDS011;72375;59.302;18.204;2023-11-19T03:45:35;3.00;;;2.70;;
11663;SDS011;72375;59.302;18.204;2023-11-19T03:48:21;4.43;;;2.70;;
11663;SDS011;72375;59.302;18.204;2023-11-19T03:51:08;3.10;;;2.27;;
11663;SDS011;72375;59.302;18.204;2023-11-19T03:53:55;4.20;;;2.67;;
11663;SDS011;72375;59.302;18.204;2023-11-19T03:56:41;3.07;;;2.00;;
11663;SDS011;72375;59.302;18.204;2023-11-19T03:59:27;3.90;;;1.90;;
11663;SDS011;72375;59.302;18.204;2023-11-19T04:02:13;2.80;;;2.17;;
11663;SDS011;72375;59.302;18.204;2023-11-19T04:04:58;2.77;;;2.23;;
11663;SDS011;72375;59.302;18.204;2023-11-19T04:07:45;3.80;;;2.10;;
11663;SDS011;72375;59.302;18.204;2023-11-19T04:10:31;3.07;;;2.40;;
11663;SDS011;72375;59.302;18.204;2023-11-19T04:13:17;3.63;;;2.10;;
11663;SDS011;72375;59.302;18.204;2023-11-19T04:16:03;2.80;;;2.13;;
11663;SDS011;72375;59.302;18.204;2023-11-19T04:18:49;2.43;;;2.03;;
11663;SDS011;72375;59.302;18.204;2023-11-19T04:21:35;2.93;;;2.00;;
11663;SDS011;72375;59.302;18.204;2023-11-19T04:24:22;2.63;;;2.30;;
11663;SDS011;72375;59.302;18.204;2023-11-19T04:27:08;2.60;;;2.40;;
11663;SDS011;72375;59.302;18.204;2023-11-19T04:29:53;3.80;;;2.30;;
11663;SDS011;72375;59.302;18.204;2023-11-19T04:32:39;3.90;;;2.30;;
11663;SDS011;72375;59.302;18.204;2023-11-19T04:35:25;2.87;;;2.27;;
11663;SDS011;72375;59.302;18.204;2023-11-19T04:38:10;2.70;;;2.50;;
11663;SDS011;72375;59.302;18.204;2023-11-19T04:40:58;3.63;;;2.60;;
11663;SDS011;72375;59.302;18.204;2023-11-19T04:43:43;3.47;;;2.13;;
11663;SDS011;72375;59.302;18.204;2023-11-19T04:46:29;2.47;;;2.13;;
11663;SDS011;72375;59.302;18.204;2023-11-19T04:49:15;5.07;;;2.73;;
11663;SDS011;72375;59.302;18.204;2023-11-19T04:52:01;3.17;;;2.50;;
11663;SDS011;72375;59.302;18.204;2023-11-19T04:54:48;4.43;;;2.70;;
11663;SDS011;72375;59.302;18.204;2023-11-19T04:57:35;3.07;;;2.40;;
11663;SDS011;72375;59.302;18.204;2023-11-19T05:00:20;4.20;;;2.73;;
11663;SDS011;72375;59.302;18.204;2023-11-19T05:03:06;3.10;;;2.63;;
11663;SDS011;72375;59.302;18.204;2023-11-19T05:05:52;4.17;;;2.40;;
11663;SDS011;72375;59.302;18.204;2023-11-19T05:08:37;2.67;;;2.33;;
11663;SDS011;72375;59.302;18.204;2023-11-19T05:11:23;4.43;;;2.80;;
11663;SDS011;72375;59.302;18.204;2023-11-19T05:14:10;7.53;;;2.87;;
11663;SDS011;72375;59.302;18.204;2023-11-19T05:16:56;3.73;;;2.30;;
11663;SDS011;72375;59.302;18.204;2023-11-19T05:19:42;5.70;;;2.93;;
11663;SDS011;72375;59.302;18.204;2023-11-19T05:22:27;2.83;;;2.53;;
11663;SDS011;72375;59.302;18.204;2023-11-19T05:25:13;4.23;;;2.63;;
11663;SDS011;72375;59.302;18.204;2023-11-19T05:27:58;3.07;;;2.77;;
11663;SDS011;72375;59.302;18.204;2023-11-19T05:30:46;2.80;;;2.50;;
11663;SDS011;72375;59.302;18.204;2023-11-19T05:33:31;2.97;;;2.67;;
11663;SDS011;72375;59.302;18.204;2023-11-19T05:36:17;3.00;;;2.30;;
11663;SDS011;72375;59.302;18.204;2023-11-19T05:39:02;2.37;;;2.17;;
11663;SDS011;72375;59.302;18.204;2023-11-19T05:41:48;3.33;;;2.80;;
11663;SDS011;72375;59.302;18.204;2023-11-19T05:44:34;3.27;;;2.10;;
11663;SDS011;72375;59.302;18.204;2023-11-19T05:47:21;2.40;;;2.20;;
11663;SDS011;72375;59.302;18.204;2023-11-19T05:50:07;2.20;;;2.00;;
11663;SDS011;72375;59.302;18.204;2023-11-19T05:52:54;2.20;;;2.00;;
11663;SDS011;72375;59.302;18.204;2023-11-19T05:55:40;2.20;;;1.67;;
11663;SDS011;72375;59.302;18.204;2023-11-19T05:58:32;2.67;;;2.33;;
11663;SDS011;72375;59.302;18.204;2023-11-19T06:01:18;2.23;;;2.03;;
11663;SDS011;72375;59.302;18.204;2023-11-19T06:04:05;2.50;;;2.30;;
11663;SDS011;72375;59.302;18.204;2023-11-19T06:06:51;3.63;;;2.30;;
11663;SDS011;72375;59.302;18.204;2023-11-19T06:09:38;3.43;;;1.70;;
11663;SDS011;72375;59.302;18.204;2023-11-19T06:12:24;2.50;;;2.23;;
11663;SDS011;72375;59.302;18.204;2023-11-19T06:15:11;4.70;;;1.93;;
11663;SDS011;72375;59.302;18.204;2023-11-19T06:17:57;2.63;;;2.00;;
11663;SDS011;72375;59.302;18.204;2023-11-19T06:20:46;2.57;;;2.37;;
11663;SDS011;72375;59.302;18.204;2023-11-19T06:23:33;3.57;;;2.17;;
11663;SDS011;72375;59.302;18.204;2023-11-19T06:26:19;2.77;;;2.10;;
11663;SDS011;72375;59.302;18.204;2023-11-19T06:29:06;2.53;;;2.10;;
11663;SDS011;72375;59.302;18.204;2023-11-19T06:31:51;2.53;;;2.10;;
11663;SDS011;72375;59.302;18.204;2023-11-19T06:34:37;2.97;;;2.10;;
11663;SDS011;72375;59.302;18.204;2023-11-19T06:37:24;2.97;;;2.03;;
11663;SDS011;72375;59.302;18.204;2023-11-19T06:40:11;2.90;;;2.03;;
11663;SDS011;72375;59.302;18.204;2023-11-19T06:42:59;3.30;;;2.27;;
11663;SDS011;72375;59.302;18.204;2023-11-19T06:45:46;3.10;;;2.20;;
11663;SDS011;72375;59.302;18.204;2023-11-19T06:48:32;2.80;;;2.10;;
11663;SDS011;72375;59.302;18.204;2023-11-19T06:51:18;2.50;;;2.30;;
11663;SDS011;72375;59.302;18.204;2023-11-19T06:54:05;2.67;;;2.33;;
11663;SDS011;72375;59.302;18.204;2023-11-19T06:56:51;2.97;;;2.67;;
11663;SDS011;72375;59.302;18.204;2023-11-19T06:59:37;2.93;;;2.17;;
11663;SDS011;72375;59.302;18.204;2023-11-19T07:02:22;2.97;;;2.30;;
11663;SDS011;72375;59.302;18.204;2023-11-19T07:05:08;3.50;;;2.57;;
11663;SDS011;72375;59.302;18.204;2023-11-19T07:07:55;3.63;;;2.40;;
11663;SDS011;72375;59.302;18.204;2023-11-19T07:10:42;2.53;;;2.30;;
11663;SDS011;72375;59.302;18.204;2023-11-19T07:13:31;2.53;;;2.20;;
11663;SDS011;72375;59.302;18.204;2023-11-19T07:16:17;3.30;;;2.57;;
11663;SDS011;72375;59.302;18.204;2023-11-19T07:19:02;2.80;;;2.40;;
11663;SDS011;72375;59.302;18.204;2023-11-19T07:21:48;3.20;;;2.47;;
11663;SDS011;72375;59.302;18.204;2023-11-19T07:24:34;2.90;;;2.50;;
11663;SDS011;72375;59.302;18.204;2023-11-19T07:27:21;3.10;;;2.60;;
11663;SDS011;72375;59.302;18.204;2023-11-19T07:30:08;3.37;;;2.63;;
11663;SDS011;72375;59.302;18.204;2023-11-19T07:32:54;4.23;;;2.73;;
11663;SDS011;72375;59.302;18.204;2023-11-19T07:35:40;2.77;;;2.33;;
11663;SDS011;72375;59.302;18.204;2023-11-19T07:38:26;6.17;;;3.23;;
11663;SDS011;72375;59.302;18.204;2023-11-19T07:41:11;3.30;;;2.43;;
11663;SDS011;72375;59.302;18.204;2023-11-19T07:43:59;3.60;;;3.23;;
11663;SDS011;72375;59.302;18.204;2023-11-19T07:46:45;3.20;;;2.63;;
11663;SDS011;72375;59.302;18.204;2023-11-19T07:49:31;3.13;;;2.43;;
11663;SDS011;72375;59.302;18.204;2023-11-19T07:52:17;4.00;;;2.73;;
11663;SDS011;72375;59.302;18.204;2023-11-19T07:55:03;4.03;;;2.77;;
11663;SDS011;72375;59.302;18.204;2023-11-19T07:57:49;4.70;;;3.00;;
11663;SDS011;72375;59.302;18.204;2023-11-19T08:00:37;4.43;;;3.03;;
11663;SDS011;72375;59.302;18.204;2023-11-19T08:03:22;4.97;;;3.23;;
11663;SDS011;72375;59.302;18.204;2023-11-19T08:06:08;4.40;;;3.37;;
11663;SDS011;72375;59.302;18.204;2023-11-19T08:08:54;4.97;;;3.50;;
11663;SDS011;72375;59.302;18.204;2023-11-19T08:11:40;4.50;;;3.50;;
11663;SDS011;72375;59.302;18.204;2023-11-19T08:14:25;5.57;;;4.23;;
11663;SDS011;72375;59.302;18.204;2023-11-19T08:17:13;6.27;;;4.10;;
11663;SDS011;72375;59.302;18.204;2023-11-19T08:19:59;5.47;;;3.90;;
11663;SDS011;72375;59.302;18.204;2023-11-19T08:22:45;6.27;;;4.10;;
11663;SDS011;72375;59.302;18.204;2023-11-19T08:25:31;5.13;;;3.73;;
11663;SDS011;72375;59.302;18.204;2023-11-19T08:28:17;10.90;;;4.50;;
11663;SDS011;72375;59.302;18.204;2023-11-19T08:31:03;5.87;;;4.10;;
11663;SDS011;72375;59.302;18.204;2023-11-19T08:33:50;6.23;;;4.40;;
11663;SDS011;72375;59.302;18.204;2023-11-19T08:36:36;5.43;;;4.27;;
11663;SDS011;72375;59.302;18.204;2023-11-19T08:39:22;8.40;;;4.60;;
11663;SDS011;72375;59.302;18.204;2023-11-19T08:42:07;5.90;;;4.30;;
11663;SDS011;72375;59.302;18.204;2023-11-19T08:44:53;7.67;;;4.57;;
11663;SDS011;72375;59.302;18.204;2023-11-19T08:47:39;6.70;;;4.03;;
11663;SDS011;72375;59.302;18.204;2023-11-19T08:50:26;6.87;;;3.87;;
11663;SDS011;72375;59.302;18.204;2023-11-19T08:53:12;6.17;;;3.83;;
11663;SDS011;72375;59.302;18.204;2023-11-19T08:55:57;5.97;;;4.23;;
11663;SDS011;72375;59.302;18.204;2023-11-19T08:58:44;5.97;;;4.30;;
11663;SDS011;72375;59.302;18.204;2023-11-19T09:01:29;6.13;;;4.07;;
11663;SDS011;72375;59.302;18.204;2023-11-19T09:04:15;5.10;;;3.83;;
11663;SDS011;72375;59.302;18.204;2023-11-19T09:07:02;5.30;;;3.97;;
11663;SDS011;72375;59.302;18.204;2023-11-19T09:09:48;7.27;;;3.73;;
11663;SDS011;72375;59.302;18.204;2023-11-19T09:12:34;5.33;;;3.47;;
11663;SDS011;72375;59.302;18.204;2023-11-19T09:15:20;3.87;;;3.30;;
11663;SDS011;72375;59.302;18.204;2023-11-19T09:18:05;3.90;;;3.10;;
11663;SDS011;72375;59.302;18.204;2023-11-19T09:20:51;5.60;;;3.47;;
11663;SDS011;72375;59.302;18.204;2023-11-19T09:23:38;4.27;;;3.10;;
11663;SDS011;72375;59.302;18.204;2023-11-19T09:26:24;4.30;;;3.30;;
11663;SDS011;72375;59.302;18.204;2023-11-19T09:29:09;3.67;;;2.80;;
11663;SDS011;72375;59.302;18.204;2023-11-19T09:31:55;3.00;;;2.60;;
11663;SDS011;72375;59.302;18.204;2023-11-19T09:34:41;3.33;;;2.30;;
11663;SDS011;72375;59.302;18.204;2023-11-19T09:37:27;3.63;;;2.70;;
11663;SDS011;72375;59.302;18.204;2023-11-19T09:40:14;7.00;;;2.33;;
11663;SDS011;72375;59.302;18.204;2023-11-19T09:43:01;3.37;;;2.70;;
11663;SDS011;72375;59.302;18.204;2023-11-19T09:45:47;3.53;;;2.50;;
11663;SDS011;72375;59.302;18.204;2023-11-19T09:48:34;3.40;;;2.70;;
11663;SDS011;72375;59.302;18.204;2023-11-19T09:51:20;3.10;;;2.23;;
11663;SDS011;72375;59.302;18.204;2023-11-19T09:54:06;2.53;;;2.20;;
11663;SDS011;72375;59.302;18.204;2023-11-19T09:56:54;2.80;;;2.40;;
11663;SDS011;72375;59.302;18.204;2023-11-19T09:59:44;2.57;;;2.10;;
11663;SDS011;72375;59.302;18.204;2023-11-19T10:02:31;2.50;;;2.07;;
11663;SDS011;72375;59.302;18.204;2023-11-19T10:05:19;6.33;;;2.57;;
11663;SDS011;72375;59.302;18.204;2023-11-19T10:08:06;2.13;;;1.93;;
11663;SDS011;72375;59.302;18.204;2023-11-19T10:10:54;2.83;;;1.73;;
11663;SDS011;72375;59.302;18.204;2023-11-19T10:13:42;2.20;;;1.70;;
11663;SDS011;72375;59.302;18.204;2023-11-19T10:16:28;2.33;;;1.73;;
11663;SDS011;72375;59.302;18.204;2023-11-19T10:19:18;2.43;;;2.17;;
11663;SDS011;72375;59.302;18.204;2023-11-19T10:22:05;2.30;;;1.80;;
11663;SDS011;72375;59.302;18.204;2023-11-19T10:24:51;1.73;;;1.63;;
11663;SDS011;72375;59.302;18.204;2023-11-19T10:27:36;2.87;;;1.70;;
11663;SDS011;72375;59.302;18.204;2023-11-19T10:30:24;2.90;;;1.67;;
11663;SDS011;72375;59.302;18.204;2023-11-19T10:33:12;1.67;;;1.40;;
11663;SDS011;72375;59.302;18.204;2023-11-19T10:36:01;2.10;;;1.90;;
11663;SDS011;72375;59.302;18.204;2023-11-19T10:38:53;2.13;;;1.60;;
11663;SDS011;72375;59.302;18.204;2023-11-19T10:41:40;2.33;;;1.47;;
11663;SDS011;72375;59.302;18.204;2023-11-19T10:44:32;1.50;;;1.40;;
11663;SDS011;72375;59.302;18.204;2023-11-19T10:47:21;4.17;;;1.87;;
11663;SDS011;72375;59.302;18.204;2023-11-19T10:50:08;2.33;;;1.50;;
11663;SDS011;72375;59.302;18.204;2023-11-19T10:52:55;1.67;;;1.53;;
11663;SDS011;72375;59.302;18.204;2023-11-19T10:55:42;2.70;;;2.23;;
11663;SDS011;72375;59.302;18.204;2023-11-19T10:58:32;2.20;;;1.70;;
11663;SDS011;72375;59.302;18.204;2023-11-19T11:01:19;2.00;;;1.80;;
11663;SDS011;72375;59.302;18.204;2023-11-19T11:04:06;2.03;;;1.83;;
11663;SDS011;72375;59.302;18.204;2023-11-19T11:06:58;3.73;;;2.30;;
11663;SDS011;72375;59.302;18.204;2023-11-19T11:09:45;2.60;;;2.00;;
11663;SDS011;72375;59.302;18.204;2023-11-19T11:12:33;2.47;;;1.60;;
11663;SDS011;72375;59.302;18.204;2023-11-19T11:15:21;1.90;;;1.57;;
11663;SDS011;72375;59.302;18.204;2023-11-19T11:18:06;2.13;;;1.77;;
11663;SDS011;72375;59.302;18.204;2023-11-19T11:20:55;2.23;;;1.87;;
11663;SDS011;72375;59.302;18.204;2023-11-19T11:23:49;3.10;;;1.87;;
11663;SDS011;72375;59.302;18.204;2023-11-19T11:26:51;1.70;;;1.60;;
11663;SDS011;72375;59.302;18.204;2023-11-19T11:29:54;3.47;;;2.17;;
11663;SDS011;72375;59.302;18.204;2023-11-19T11:32:50;2.00;;;1.80;;
11663;SDS011;72375;59.302;18.204;2023-11-19T11:35:48;3.10;;;2.20;;
11663;SDS011;72375;59.302;18.204;2023-11-19T11:38:41;3.50;;;2.10;;
11663;SDS011;72375;59.302;18.204;2023-11-19T11:41:28;2.83;;;2.33;;
11663;SDS011;72375;59.302;18.204;2023-11-19T11:44:14;3.57;;;2.30;;
11663;SDS011;72375;59.302;18.204;2023-11-19T11:47:00;2.20;;;1.93;;
11663;SDS011;72375;59.302;18.204;2023-11-19T11:49:46;2.00;;;1.80;;
11663;SDS011;72375;59.302;18.204;2023-11-19T11:52:32;2.43;;;1.93;;
11663;SDS011;72375;59.302;18.204;2023-11-19T11:55:19;2.07;;;1.87;;
11663;SDS011;72375;59.302;18.204;2023-11-19T11:58:09;2.53;;;2.20;;
11663;SDS011;72375;59.302;18.204;2023-11-19T12:00:56;2.10;;;1.90;;
11663;SDS011;72375;59.302;18.204;2023-11-19T12:03:43;3.50;;;2.50;;
11663;SDS011;72375;59.302;18.204;2023-11-19T12:06:32;2.83;;;2.10;;
11663;SDS011;72375;59.302;18.204;2023-11-19T12:09:19;4.60;;;2.50;;
11663;SDS011;72375;59.302;18.204;2023-11-19T12:15:11;2.53;;;2.30;;
11663;SDS011;72375;59.302;18.204;2023-11-19T12:17:58;2.87;;;2.47;;
11663;SDS011;72375;59.302;18.204;2023-11-19T12:20:44;3.07;;;2.40;;
11663;SDS011;72375;59.302;18.204;2023-11-19T12:23:30;3.80;;;2.77;;
11663;SDS011;72375;59.302;18.204;2023-11-19T12:26:21;3.53;;;2.13;;
11663;SDS011;72375;59.302;18.204;2023-11-19T12:29:17;3.20;;;2.57;;
11663;SDS011;72375;59.302;18.204;2023-11-19T12:32:04;3.10;;;2.40;;
11663;SDS011;72375;59.302;18.204;2023-11-19T12:34:50;2.73;;;2.10;;
11663;SDS011;72375;59.302;18.204;2023-11-19T12:37:38;2.83;;;2.20;;
11663;SDS011;72375;59.302;18.204;2023-11-19T12:40:24;2.93;;;2.50;;
11663;SDS011;72375;59.302;18.204;2023-11-19T12:43:20;6.20;;;2.87;;
11663;SDS011;72375;59.302;18.204;2023-11-19T12:46:17;3.17;;;2.50;;
11663;SDS011;72375;59.302;18.204;2023-11-19T12:49:04;4.07;;;2.97;;
11663;SDS011;72375;59.302;18.204;2023-11-19T12:51:50;4.07;;;2.60;;
11663;SDS011;72375;59.302;18.204;2023-11-19T12:54:36;4.63;;;2.80;;
11663;SDS011;72375;59.302;18.204;2023-11-19T12:57:21;3.20;;;2.40;;
11663;SDS011;72375;59.302;18.204;2023-11-19T13:00:21;4.97;;;2.90;;
11663;SDS011;72375;59.302;18.204;2023-11-19T13:03:09;3.17;;;2.30;;
11663;SDS011;72375;59.302;18.204;2023-11-19T13:06:00;3.70;;;2.73;;
11663;SDS011;72375;59.302;18.204;2023-11-19T13:08:47;3.07;;;2.30;;
11663;SDS011;72375;59.302;18.204;2023-11-19T13:11:35;3.17;;;2.30;;
11663;SDS011;72375;59.302;18.204;2023-11-19T13:14:23;3.50;;;3.10;;
11663;SDS011;72375;59.302;18.204;2023-11-19T13:17:08;3.00;;;2.70;;
11663;SDS011;72375;59.302;18.204;2023-11-19T13:19:59;4.07;;;2.73;;
11663;SDS011;72375;59.302;18.204;2023-11-19T13:22:53;5.50;;;3.40;;
11663;SDS011;72375;59.302;18.204;2023-11-19T13:25:39;4.37;;;3.20;;
11663;SDS011;72375;59.302;18.204;2023-11-19T13:28:25;4.93;;;3.70;;
11663;SDS011;72375;59.302;18.204;2023-11-19T13:31:11;3.97;;;3.37;;
11663;SDS011;72375;59.302;18.204;2023-11-19T13:33:58;6.77;;;3.63;;
11663;SDS011;72375;59.302;18.204;2023-11-19T13:36:45;6.07;;;4.40;;
11663;SDS011;72375;59.302;18.204;2023-11-19T13:39:31;6.37;;;3.93;;
11663;SDS011;72375;59.302;18.204;2023-11-19T13:42:17;8.70;;;4.03;;
11663;SDS011;72375;59.302;18.204;2023-11-19T13:45:04;6.87;;;3.40;;
11663;SDS011;72375;59.302;18.204;2023-11-19T13:47:52;5.27;;;3.43;;
11663;SDS011;72375;59.302;18.204;2023-11-19T13:50:38;5.27;;;3.23;;
11663;SDS011;72375;59.302;18.204;2023-11-19T13:53:25;5.53;;;3.77;;
11663;SDS011;72375;59.302;18.204;2023-11-19T13:56:10;4.13;;;3.27;;
11663;SDS011;72375;59.302;18.204;2023-11-19T13:58:56;4.47;;;3.00;;
11663;SDS011;72375;59.302;18.204;2023-11-19T14:01:42;3.00;;;2.57;;
11663;SDS011;72375;59.302;18.204;2023-11-19T14:04:27;3.83;;;2.90;;
11663;SDS011;72375;59.302;18.204;2023-11-19T14:07:13;4.73;;;2.80;;
11663;SDS011;72375;59.302;18.204;2023-11-19T14:10:00;3.50;;;2.87;;
11663;SDS011;72375;59.302;18.204;2023-11-19T14:12:46;3.43;;;2.50;;
11663;SDS011;72375;59.302;18.204;2023-11-19T14:15:33;3.30;;;2.70;;
11663;SDS011;72375;59.302;18.204;2023-11-19T14:18:19;3.87;;;2.63;;
11663;SDS011;72375;59.302;18.204;2023-11-19T14:21:05;3.20;;;2.17;;
11663;SDS011;72375;59.302;18.204;2023-11-19T14:23:51;2.60;;;2.40;;
11663;SDS011;72375;59.302;18.204;2023-11-19T14:26:38;4.67;;;2.60;;
11663;SDS011;72375;59.302;18.204;2023-11-19T14:29:23;3.07;;;2.40;;
11663;SDS011;72375;59.302;18.204;2023-11-19T14:32:10;3.20;;;2.60;;
11663;SDS011;72375;59.302;18.204;2023-11-19T14:34:56;3.07;;;2.40;;
11663;SDS011;72375;59.302;18.204;2023-11-19T14:37:42;3.33;;;2.47;;
11663;SDS011;72375;59.302;18.204;2023-11-19T14:40:28;3.73;;;2.47;;
11663;SDS011;72375;59.302;18.204;2023-11-19T14:43:15;2.30;;;1.83;;
11663;SDS011;72375;59.302;18.204;2023-11-19T14:46:00;3.17;;;2.17;;
11663;SDS011;72375;59.302;18.204;2023-11-19T14:48:47;3.90;;;2.13;;
11663;SDS011;72375;59.302;18.204;2023-11-19T14:51:35;2.30;;;1.90;;
11663;SDS011;72375;59.302;18.204;2023-11-19T14:54:21;3.07;;;1.90;;
11663;SDS011;72375;59.302;18.204;2023-11-19T14:57:08;3.13;;;1.97;;
11663;SDS011;72375;59.302;18.204;2023-11-19T14:59:55;2.47;;;2.00;;
11663;SDS011;72375;59.302;18.204;2023-11-19T15:02:40;2.10;;;1.63;;
11663;SDS011;72375;59.302;18.204;2023-11-19T15:05:26;2.80;;;2.00;;
11663;SDS011;72375;59.302;18.204;2023-11-19T15:08:13;2.10;;;1.70;;
11663;SDS011;72375;59.302;18.204;2023-11-19T15:10:59;2.13;;;1.90;;
11663;SDS011;72375;59.302;18.204;2023-11-19T15:13:45;2.40;;;2.20;;
11663;SDS011;72375;59.302;18.204;2023-11-19T15:16:32;3.90;;;2.00;;
11663;SDS011;72375;59.302;18.204;2023-11-19T15:19:18;2.67;;;1.87;;
11663;SDS011;72375;59.302;18.204;2023-11-19T15:22:05;3.20;;;2.07;;
11663;SDS011;72375;59.302;18.204;2023-11-19T15:24:51;3.00;;;1.90;;
11663;SDS011;72375;59.302;18.204;2023-11-19T15:27:36;2.60;;;2.10;;
11663;SDS011;72375;59.302;18.204;2023-11-19T15:30:22;2.67;;;2.00;;
11663;SDS011;72375;59.302;18.204;2023-11-19T15:33:10;2.93;;;2.10;;
11663;SDS011;72375;59.302;18.204;2023-11-19T15:35:56;2.23;;;1.73;;
11663;SDS011;72375;59.302;18.204;2023-11-19T15:38:43;2.73;;;2.30;;
11663;SDS011;72375;59.302;18.204;2023-11-19T15:41:29;3.03;;;2.37;;
11663;SDS011;72375;59.302;18.204;2023-11-19T15:44:15;4.00;;;2.20;;
11663;SDS011;72375;59.302;18.204;2023-11-19T15:47:01;3.03;;;2.40;;
11663;SDS011;72375;59.302;18.204;2023-11-19T15:49:48;2.57;;;2.20;;
11663;SDS011;72375;59.302;18.204;2023-11-19T15:52:34;3.00;;;1.90;;
11663;SDS011;72375;59.302;18.204;2023-11-19T15:55:19;2.73;;;2.20;;
11663;SDS011;72375;59.302;18.204;2023-11-19T15:58:05;2.30;;;2.00;;
11663;SDS011;72375;59.302;18.204;2023-11-19T16:00:51;3.83;;;2.30;;
11663;SDS011;72375;59.302;18.204;2023-11-19T16:03:37;2.87;;;2.10;;
11663;SDS011;72375;59.302;18.204;2023-11-19T16:06:24;3.33;;;2.80;;
11663;SDS011;72375;59.302;18.204;2023-11-19T16:09:10;3.40;;;2.00;;
11663;SDS011;72375;59.302;18.204;2023-11-19T16:11:58;4.63;;;2.67;;
11663;SDS011;72375;59.302;18.204;2023-11-19T16:14:44;4.90;;;2.80;;
11663;SDS011;72375;59.302;18.204;2023-11-19T16:17:30;2.53;;;2.17;;
11663;SDS011;72375;59.302;18.204;2023-11-19T16:20:15;3.43;;;2.60;;
11663;SDS011;72375;59.302;18.204;2023-11-19T16:23:03;4.00;;;2.53;;
11663;SDS011;72375;59.302;18.204;2023-11-19T16:25:49;2.93;;;2.33;;
11663;SDS011;72375;59.302;18.204;2023-11-19T16:28:34;3.40;;;2.60;;
11663;SDS011;72375;59.302;18.204;2023-11-19T16:31:20;3.10;;;2.47;;